sensor_id;sensor_type;location;lat;lon;timestamp;pressure;altitude;pressure_sealevel;temperature;humidity
71768;BME280;59604;52.138;5.446;2022-11-20T00:00:54;101628.50;;;-3.23;89.61
71768;BME280;59604;52.138;5.446;2022-11-20T00:03:21;101644.78;;;-3.22;89.48
71768;BME280;59604;52.138;5.446;2022-11-20T00:05:47;101632.84;;;-3.23;89.28
71768;BME280;59604;52.138;5.446;2022-11-20T00:08:14;101629.50;;;-3.25;89.19
71768;BME280;59604;52.138;5.446;2022-11-20T00:10:40;101630.56;;;-3.29;89.13
71768;BME280;59604;52.138;5.446;2022-11-20T00:13:07;101627.16;;;-3.30;89.62
71768;BME280;59604;52.138;5.446;2022-11-20T00:15:34;101627.06;;;-3.28;89.32
71768;BME280;59604;52.138;5.446;2022-11-20T00:18:00;101627.06;;;-3.28;89.43
71768;BME280;59604;52.138;5.446;2022-11-20T00:20:27;101628.97;;;-3.32;89.59
71768;BME280;59604;52.138;5.446;2022-11-20T00:22:53;101624.00;;;-3.35;89.45
71768;BME280;59604;52.138;5.446;2022-11-20T00:25:20;101623.13;;;-3.35;89.66
71768;BME280;59604;52.138;5.446;2022-11-20T00:27:46;101617.56;;;-3.44;89.66
71768;BME280;59604;52.138;5.446;2022-11-20T00:30:13;101622.78;;;-3.45;90.18
71768;BME280;59604;52.138;5.446;2022-11-20T00:32:40;101621.34;;;-3.51;89.87
71768;BME280;59604;52.138;5.446;2022-11-20T00:35:07;101624.56;;;-3.63;90.08
71768;BME280;59604;52.138;5.446;2022-11-20T00:37:33;101623.78;;;-3.65;90.73
71768;BME280;59604;52.138;5.446;2022-11-20T00:40:00;101622.03;;;-3.65;90.69
71768;BME280;59604;52.138;5.446;2022-11-20T00:42:26;101625.91;;;-3.73;90.47
71768;BME280;59604;52.138;5.446;2022-11-20T00:44:53;101624.50;;;-3.79;90.80
71768;BME280;59604;52.138;5.446;2022-11-20T00:47:20;101623.19;;;-3.88;90.45
71768;BME280;59604;52.138;5.446;2022-11-20T00:49:46;101616.75;;;-3.96;90.42
71768;BME280;59604;52.138;5.446;2022-11-20T00:52:13;101623.56;;;-3.95;90.79
71768;BME280;59604;52.138;5.446;2022-11-20T00:54:39;101613.91;;;-3.90;91.01
71768;BME280;59604;52.138;5.446;2022-11-20T00:57:06;101602.44;;;-3.84;91.14
71768;BME280;59604;52.138;5.446;2022-11-20T00:59:32;101606.84;;;-3.86;90.79
71768;BME280;59604;52.138;5.446;2022-11-20T01:01:59;101601.75;;;-3.88;90.75
71768;BME280;59604;52.138;5.446;2022-11-20T01:04:25;101604.50;;;-3.91;91.12
71768;BME280;59604;52.138;5.446;2022-11-20T01:06:52;101600.63;;;-4.00;91.11
71768;BME280;59604;52.138;5.446;2022-11-20T01:09:18;101604.03;;;-3.99;91.26
71768;BME280;59604;52.138;5.446;2022-11-20T01:11:45;101601.91;;;-3.91;91.36
71768;BME280;59604;52.138;5.446;2022-11-20T01:14:18;101597.78;;;-3.94;91.41
71768;BME280;59604;52.138;5.446;2022-11-20T01:16:47;101603.22;;;-4.00;91.14
71768;BME280;59604;52.138;5.446;2022-11-20T01:19:16;101604.63;;;-3.94;91.45
71768;BME280;59604;52.138;5.446;2022-11-20T01:21:45;101595.03;;;-3.91;91.37
71768;BME280;59604;52.138;5.446;2022-11-20T01:24:13;101591.63;;;-3.91;91.06
71768;BME280;59604;52.138;5.446;2022-11-20T01:26:42;101589.13;;;-3.93;90.98
71768;BME280;59604;52.138;5.446;2022-11-20T01:29:17;101580.06;;;-4.00;90.82
71768;BME280;59604;52.138;5.446;2022-11-20T01:31:45;101580.88;;;-3.99;91.14
71768;BME280;59604;52.138;5.446;2022-11-20T01:34:17;101584.72;;;-3.91;91.23
71768;BME280;59604;52.138;5.446;2022-11-20T01:36:44;101582.78;;;-3.85;91.39
71768;BME280;59604;52.138;5.446;2022-11-20T01:39:14;101586.28;;;-3.86;91.25
71768;BME280;59604;52.138;5.446;2022-11-20T01:41:42;101584.66;;;-3.89;91.19
71768;BME280;59604;52.138;5.446;2022-11-20T01:44:55;101589.59;;;-3.84;91.02
71768;BME280;59604;52.138;5.446;2022-11-20T01:50:09;101589.00;;;-3.90;90.82
71768;BME280;59604;52.138;5.446;2022-11-20T01:52:42;101584.44;;;-3.84;90.83
71768;BME280;59604;52.138;5.446;2022-11-20T01:55:19;101578.38;;;-3.83;90.55
71768;BME280;59604;52.138;5.446;2022-11-20T01:57:48;101578.38;;;-3.83;90.99
71768;BME280;59604;52.138;5.446;2022-11-20T02:00:18;101579.19;;;-3.83;91.00
71768;BME280;59604;52.138;5.446;2022-11-20T02:02:51;101579.13;;;-3.81;90.64
71768;BME280;59604;52.138;5.446;2022-11-20T02:05:22;101578.31;;;-3.82;90.87
71768;BME280;59604;52.138;5.446;2022-11-20T02:07:54;101580.13;;;-3.84;90.74
71768;BME280;59604;52.138;5.446;2022-11-20T02:10:21;101574.22;;;-3.86;90.58
71768;BME280;59604;52.138;5.446;2022-11-20T02:12:48;101574.28;;;-3.88;90.56
71768;BME280;59604;52.138;5.446;2022-11-20T02:15:36;101578.53;;;-3.86;90.81
71768;BME280;59604;52.138;5.446;2022-11-20T02:18:03;101568.31;;;-3.88;90.62
71768;BME280;59604;52.138;5.446;2022-11-20T02:20:30;101571.03;;;-3.91;90.47
71768;BME280;59604;52.138;5.446;2022-11-20T02:23:01;101570.28;;;-3.93;90.73
71768;BME280;59604;52.138;5.446;2022-11-20T02:25:30;101578.00;;;-3.93;90.53
71768;BME280;59604;52.138;5.446;2022-11-20T02:27:59;101583.22;;;-3.95;90.85
71768;BME280;59604;52.138;5.446;2022-11-20T02:30:25;101578.16;;;-3.96;90.62
71768;BME280;59604;52.138;5.446;2022-11-20T02:32:52;101579.81;;;-3.95;90.72
71768;BME280;59604;52.138;5.446;2022-11-20T02:37:48;101566.28;;;-3.99;90.54
71768;BME280;59604;52.138;5.446;2022-11-20T02:40:16;101558.78;;;-4.03;90.92
71768;BME280;59604;52.138;5.446;2022-11-20T02:42:42;101556.13;;;-4.02;90.71
71768;BME280;59604;52.138;5.446;2022-11-20T02:45:09;101554.75;;;-4.09;90.73
71768;BME280;59604;52.138;5.446;2022-11-20T02:47:36;101560.22;;;-4.15;90.74
71768;BME280;59604;52.138;5.446;2022-11-20T02:50:05;101557.72;;;-4.17;90.94
71768;BME280;59604;52.138;5.446;2022-11-20T02:52:32;101550.91;;;-4.18;90.76
71768;BME280;59604;52.138;5.446;2022-11-20T02:54:59;101550.91;;;-4.18;90.90
71768;BME280;59604;52.138;5.446;2022-11-20T02:57:25;101554.25;;;-4.16;91.42
71768;BME280;59604;52.138;5.446;2022-11-20T02:59:52;101548.44;;;-4.19;90.93
71768;BME280;59604;52.138;5.446;2022-11-20T03:02:19;101548.34;;;-4.18;91.04
71768;BME280;59604;52.138;5.446;2022-11-20T03:04:45;101545.78;;;-4.18;91.22
71768;BME280;59604;52.138;5.446;2022-11-20T03:07:12;101540.19;;;-4.26;90.78
71768;BME280;59604;52.138;5.446;2022-11-20T03:09:38;101535.56;;;-4.37;90.91
71768;BME280;59604;52.138;5.446;2022-11-20T03:12:05;101533.22;;;-4.41;90.91
71768;BME280;59604;52.138;5.446;2022-11-20T03:14:34;101528.25;;;-4.46;91.01
71768;BME280;59604;52.138;5.446;2022-11-20T03:17:00;101533.72;;;-4.52;90.93
71768;BME280;59604;52.138;5.446;2022-11-20T03:19:27;101528.44;;;-4.49;91.09
71768;BME280;59604;52.138;5.446;2022-11-20T03:21:53;101531.53;;;-4.42;91.66
71768;BME280;59604;52.138;5.446;2022-11-20T03:24:20;101527.97;;;-4.40;91.50
71768;BME280;59604;52.138;5.446;2022-11-20T03:26:47;101521.09;;;-4.39;90.87
71768;BME280;59604;52.138;5.446;2022-11-20T03:29:14;101527.53;;;-4.48;91.16
71768;BME280;59604;52.138;5.446;2022-11-20T03:31:40;101523.97;;;-4.45;90.71
71768;BME280;59604;52.138;5.446;2022-11-20T03:34:08;101527.97;;;-4.40;91.24
71768;BME280;59604;52.138;5.446;2022-11-20T03:36:38;101521.19;;;-4.41;91.60
71768;BME280;59604;52.138;5.446;2022-11-20T03:39:05;101517.78;;;-4.41;91.51
71768;BME280;59604;52.138;5.446;2022-11-20T03:41:36;101523.66;;;-4.39;91.49
71768;BME280;59604;52.138;5.446;2022-11-20T03:44:06;101525.25;;;-4.37;91.68
71768;BME280;59604;52.138;5.446;2022-11-20T03:46:33;101528.44;;;-4.31;91.69
71768;BME280;59604;52.138;5.446;2022-11-20T03:49:00;101517.25;;;-4.30;91.22
71768;BME280;59604;52.138;5.446;2022-11-20T03:51:29;101520.66;;;-4.30;91.45
71768;BME280;59604;52.138;5.446;2022-11-20T03:53:58;101510.13;;;-4.43;91.11
71768;BME280;59604;52.138;5.446;2022-11-20T03:56:27;101520.94;;;-4.53;91.15
71768;BME280;59604;52.138;5.446;2022-11-20T03:58:53;101513.53;;;-4.59;91.17
71768;BME280;59604;52.138;5.446;2022-11-20T04:01:22;101510.31;;;-4.65;90.79
71768;BME280;59604;52.138;5.446;2022-11-20T04:03:52;101509.88;;;-4.73;90.93
71768;BME280;59604;52.138;5.446;2022-11-20T04:06:20;101511.00;;;-4.78;90.80
71768;BME280;59604;52.138;5.446;2022-11-20T04:08:48;101506.56;;;-4.75;91.16
71768;BME280;59604;52.138;5.446;2022-11-20T04:11:24;101499.53;;;-4.71;91.09
71768;BME280;59604;52.138;5.446;2022-11-20T04:13:53;101499.94;;;-4.80;91.26
71768;BME280;59604;52.138;5.446;2022-11-20T04:16:21;101501.41;;;-4.94;91.19
71768;BME280;59604;52.138;5.446;2022-11-20T04:18:56;101494.72;;;-4.96;91.67
71768;BME280;59604;52.138;5.446;2022-11-20T04:21:23;101492.00;;;-4.93;92.01
71768;BME280;59604;52.138;5.446;2022-11-20T04:23:51;101494.25;;;-4.87;91.84
71768;BME280;59604;52.138;5.446;2022-11-20T04:26:19;101490.78;;;-4.86;91.58
71768;BME280;59604;52.138;5.446;2022-11-20T04:28:46;101496.28;;;-4.94;91.67
71768;BME280;59604;52.138;5.446;2022-11-20T04:31:17;101495.91;;;-5.03;91.11
71768;BME280;59604;52.138;5.446;2022-11-20T04:33:44;101502.84;;;-5.05;91.26
71768;BME280;59604;52.138;5.446;2022-11-20T04:36:16;101496.50;;;-4.98;91.66
71768;BME280;59604;52.138;5.446;2022-11-20T04:38:43;101495.69;;;-4.99;91.51
71768;BME280;59604;52.138;5.446;2022-11-20T04:41:20;101497.28;;;-4.96;91.42
71768;BME280;59604;52.138;5.446;2022-11-20T04:43:48;101497.84;;;-4.90;91.68
71768;BME280;59604;52.138;5.446;2022-11-20T04:46:16;101483.16;;;-4.88;91.36
71768;BME280;59604;52.138;5.446;2022-11-20T04:48:43;101483.06;;;-5.03;91.15
71768;BME280;59604;52.138;5.446;2022-11-20T04:51:10;101482.50;;;-5.10;91.28
71768;BME280;59604;52.138;5.446;2022-11-20T04:53:37;101472.38;;;-5.13;91.39
71768;BME280;59604;52.138;5.446;2022-11-20T04:56:06;101481.13;;;-5.17;91.49
71768;BME280;59604;52.138;5.446;2022-11-20T04:58:34;101476.53;;;-5.11;91.50
71768;BME280;59604;52.138;5.446;2022-11-20T05:01:05;101469.66;;;-5.10;91.29
71768;BME280;59604;52.138;5.446;2022-11-20T05:03:32;101466.41;;;-5.14;91.38
71768;BME280;59604;52.138;5.446;2022-11-20T05:06:06;101466.53;;;-5.17;91.04
71768;BME280;59604;52.138;5.446;2022-11-20T05:08:33;101473.16;;;-5.11;91.55
71768;BME280;59604;52.138;5.446;2022-11-20T05:11:02;101476.41;;;-5.07;91.49
71768;BME280;59604;52.138;5.446;2022-11-20T05:13:29;101464.09;;;-5.01;91.48
71768;BME280;59604;52.138;5.446;2022-11-20T05:16:00;101472.47;;;-4.97;91.49
71768;BME280;59604;52.138;5.446;2022-11-20T05:18:27;101474.66;;;-5.07;91.15
71768;BME280;59604;52.138;5.446;2022-11-20T05:20:55;101464.88;;;-5.18;91.34
71768;BME280;59604;52.138;5.446;2022-11-20T05:23:22;101465.09;;;-5.22;91.27
71768;BME280;59604;52.138;5.446;2022-11-20T05:25:52;101462.47;;;-5.21;91.53
71768;BME280;59604;52.138;5.446;2022-11-20T05:28:24;101452.53;;;-5.28;91.03
71768;BME280;59604;52.138;5.446;2022-11-20T05:30:51;101435.88;;;-5.39;91.07
71768;BME280;59604;52.138;5.446;2022-11-20T05:33:18;101436.25;;;-5.46;91.08
71768;BME280;59604;52.138;5.446;2022-11-20T05:35:44;101442.56;;;-5.53;91.33
71768;BME280;59604;52.138;5.446;2022-11-20T05:38:11;101434.84;;;-5.53;91.53
71768;BME280;59604;52.138;5.446;2022-11-20T05:40:37;101432.16;;;-5.50;91.38
71768;BME280;59604;52.138;5.446;2022-11-20T05:43:04;101423.91;;;-5.57;91.29
71768;BME280;59604;52.138;5.446;2022-11-20T05:45:30;101426.81;;;-5.65;91.35
71768;BME280;59604;52.138;5.446;2022-11-20T05:47:58;101438.03;;;-5.67;91.57
71768;BME280;59604;52.138;5.446;2022-11-20T05:50:29;101439.78;;;-5.68;91.58
71768;BME280;59604;52.138;5.446;2022-11-20T05:52:59;101443.13;;;-5.66;91.72
71768;BME280;59604;52.138;5.446;2022-11-20T05:55:26;101447.06;;;-5.59;91.88
71768;BME280;59604;52.138;5.446;2022-11-20T05:57:53;101456.03;;;-5.48;91.63
71768;BME280;59604;52.138;5.446;2022-11-20T06:00:21;101461.84;;;-5.45;91.82
71768;BME280;59604;52.138;5.446;2022-11-20T06:02:48;101466.44;;;-5.51;91.69
71768;BME280;59604;52.138;5.446;2022-11-20T06:05:15;101463.91;;;-5.53;91.76
71768;BME280;59604;52.138;5.446;2022-11-20T06:07:41;101464.75;;;-5.52;91.68
71768;BME280;59604;52.138;5.446;2022-11-20T06:10:08;101471.44;;;-5.48;91.60
71768;BME280;59604;52.138;5.446;2022-11-20T06:12:35;101473.69;;;-5.42;91.71
71768;BME280;59604;52.138;5.446;2022-11-20T06:15:02;101467.81;;;-5.44;91.42
71768;BME280;59604;52.138;5.446;2022-11-20T06:17:29;101472.81;;;-5.41;91.61
71768;BME280;59604;52.138;5.446;2022-11-20T06:19:56;101478.47;;;-5.35;91.41
71768;BME280;59604;52.138;5.446;2022-11-20T06:22:22;101486.97;;;-5.32;91.64
71768;BME280;59604;52.138;5.446;2022-11-20T06:24:49;101479.25;;;-5.32;91.38
71768;BME280;59604;52.138;5.446;2022-11-20T06:27:16;101477.59;;;-5.33;91.17
71768;BME280;59604;52.138;5.446;2022-11-20T06:29:42;101477.03;;;-5.40;91.12
71768;BME280;59604;52.138;5.446;2022-11-20T06:32:09;101475.66;;;-5.47;90.95
71768;BME280;59604;52.138;5.446;2022-11-20T06:34:35;101468.88;;;-5.48;91.26
71768;BME280;59604;52.138;5.446;2022-11-20T06:37:02;101462.81;;;-5.47;91.29
71768;BME280;59604;52.138;5.446;2022-11-20T06:39:28;101463.50;;;-5.44;91.36
71768;BME280;59604;52.138;5.446;2022-11-20T06:41:55;101470.31;;;-5.43;91.41
71768;BME280;59604;52.138;5.446;2022-11-20T06:44:24;101467.13;;;-5.48;91.20
71768;BME280;59604;52.138;5.446;2022-11-20T06:46:51;101477.53;;;-5.51;91.47
71768;BME280;59604;52.138;5.446;2022-11-20T06:49:17;101475.66;;;-5.47;91.26
71768;BME280;59604;52.138;5.446;2022-11-20T06:51:44;101478.78;;;-5.41;91.51
71768;BME280;59604;52.138;5.446;2022-11-20T06:54:11;101477.41;;;-5.48;91.30
71768;BME280;59604;52.138;5.446;2022-11-20T06:56:37;101482.56;;;-5.49;91.06
71768;BME280;59604;52.138;5.446;2022-11-20T06:59:05;101471.75;;;-5.56;91.25
71768;BME280;59604;52.138;5.446;2022-11-20T07:01:32;101466.22;;;-5.47;91.33
71768;BME280;59604;52.138;5.446;2022-11-20T07:03:59;101459.56;;;-5.51;91.13
71768;BME280;59604;52.138;5.446;2022-11-20T07:06:25;101463.22;;;-5.56;91.17
71768;BME280;59604;52.138;5.446;2022-11-20T07:08:52;101452.22;;;-5.59;91.21
71768;BME280;59604;52.138;5.446;2022-11-20T07:11:18;101458.38;;;-5.63;91.30
71768;BME280;59604;52.138;5.446;2022-11-20T07:13:45;101455.88;;;-5.64;90.91
71768;BME280;59604;52.138;5.446;2022-11-20T07:16:12;101449.16;;;-5.67;91.09
71768;BME280;59604;52.138;5.446;2022-11-20T07:18:38;101449.28;;;-5.70;91.44
71768;BME280;59604;52.138;5.446;2022-11-20T07:21:09;101451.78;;;-5.68;91.16
71768;BME280;59604;52.138;5.446;2022-11-20T07:23:39;101454.28;;;-5.67;91.51
71768;BME280;59604;52.138;5.446;2022-11-20T07:26:08;101454.41;;;-5.70;91.20
71768;BME280;59604;52.138;5.446;2022-11-20T07:28:35;101457.59;;;-5.65;91.59
71768;BME280;59604;52.138;5.446;2022-11-20T07:31:02;101449.63;;;-5.59;91.63
71768;BME280;59604;52.138;5.446;2022-11-20T07:33:29;101440.06;;;-5.55;91.64
71768;BME280;59604;52.138;5.446;2022-11-20T07:35:55;101433.94;;;-5.52;91.47
71768;BME280;59604;52.138;5.446;2022-11-20T07:38:22;101435.56;;;-5.50;91.76
71768;BME280;59604;52.138;5.446;2022-11-20T07:40:53;101434.44;;;-5.44;91.20
71768;BME280;59604;52.138;5.446;2022-11-20T07:43:20;101440.75;;;-5.32;91.31
71768;BME280;59604;52.138;5.446;2022-11-20T07:45:46;101439.34;;;-5.21;91.79
71768;BME280;59604;52.138;5.446;2022-11-20T07:48:13;101437.25;;;-5.13;91.80
71768;BME280;59604;52.138;5.446;2022-11-20T07:50:39;101436.81;;;-5.03;91.71
71768;BME280;59604;52.138;5.446;2022-11-20T07:53:06;101439.03;;;-4.96;91.90
71768;BME280;59604;52.138;5.446;2022-11-20T07:55:33;101443.78;;;-4.88;91.82
71768;BME280;59604;52.138;5.446;2022-11-20T07:57:59;101444.25;;;-4.80;92.10
71768;BME280;59604;52.138;5.446;2022-11-20T08:00:26;101447.91;;;-4.67;92.33
71768;BME280;59604;52.138;5.446;2022-11-20T08:02:54;101452.44;;;-4.54;92.23
71768;BME280;59604;52.138;5.446;2022-11-20T08:05:20;101454.72;;;-4.48;92.49
71768;BME280;59604;52.138;5.446;2022-11-20T08:07:47;101444.88;;;-4.40;92.32
71768;BME280;59604;52.138;5.446;2022-11-20T08:10:15;101440.13;;;-4.30;92.21
71768;BME280;59604;52.138;5.446;2022-11-20T08:12:47;101432.91;;;-4.24;92.39
71768;BME280;59604;52.138;5.446;2022-11-20T08:15:33;101429.09;;;-4.17;92.40
71768;BME280;59604;52.138;5.446;2022-11-20T08:18:10;101412.59;;;-4.13;92.76
71768;BME280;59604;52.138;5.446;2022-11-20T08:21:01;101430.31;;;-4.06;93.10
71768;BME280;59604;52.138;5.446;2022-11-20T08:23:27;101432.22;;;-3.94;93.14
71768;BME280;59604;52.138;5.446;2022-11-20T08:25:54;101419.00;;;-3.86;92.46
71768;BME280;59604;52.138;5.446;2022-11-20T08:28:20;101418.81;;;-3.83;92.49
71768;BME280;59604;52.138;5.446;2022-11-20T08:30:49;101419.31;;;-3.77;92.72
71768;BME280;59604;52.138;5.446;2022-11-20T08:33:17;101418.34;;;-3.74;92.61
71768;BME280;59604;52.138;5.446;2022-11-20T08:35:44;101417.25;;;-3.70;92.87
71768;BME280;59604;52.138;5.446;2022-11-20T08:38:11;101422.00;;;-3.62;92.78
71768;BME280;59604;52.138;5.446;2022-11-20T08:40:37;101428.31;;;-3.52;93.02
71768;BME280;59604;52.138;5.446;2022-11-20T08:43:04;101427.06;;;-3.45;93.52
71768;BME280;59604;52.138;5.446;2022-11-20T08:45:30;101429.91;;;-3.34;93.16
71768;BME280;59604;52.138;5.446;2022-11-20T08:48:01;101424.91;;;-3.21;93.30
71768;BME280;59604;52.138;5.446;2022-11-20T08:50:29;101417.66;;;-3.14;93.31
71768;BME280;59604;52.138;5.446;2022-11-20T08:53:05;101415.59;;;-3.08;93.22
71768;BME280;59604;52.138;5.446;2022-11-20T08:55:32;101412.75;;;-3.03;93.30
71768;BME280;59604;52.138;5.446;2022-11-20T08:58:03;101416.47;;;-2.93;92.88
71768;BME280;59604;52.138;5.446;2022-11-20T09:00:30;101409.28;;;-2.88;92.97
71768;BME280;59604;52.138;5.446;2022-11-20T09:02:56;101413.19;;;-2.81;93.37
71768;BME280;59604;52.138;5.446;2022-11-20T09:05:24;101406.69;;;-2.72;93.16
71768;BME280;59604;52.138;5.446;2022-11-20T09:07:51;101407.16;;;-2.65;93.53
71768;BME280;59604;52.138;5.446;2022-11-20T09:10:17;101407.72;;;-2.60;93.69
71768;BME280;59604;52.138;5.446;2022-11-20T09:12:52;101397.78;;;-2.52;93.59
71768;BME280;59604;52.138;5.446;2022-11-20T09:15:19;101396.53;;;-2.45;93.84
71768;BME280;59604;52.138;5.446;2022-11-20T09:17:59;101400.41;;;-2.38;93.76
71768;BME280;59604;52.138;5.446;2022-11-20T09:20:28;101399.00;;;-2.29;93.96
71768;BME280;59604;52.138;5.446;2022-11-20T09:22:55;101391.63;;;-2.21;94.24
71768;BME280;59604;52.138;5.446;2022-11-20T09:25:22;101385.28;;;-2.15;94.28
71768;BME280;59604;52.138;5.446;2022-11-20T09:27:58;101387.41;;;-2.08;94.10
71768;BME280;59604;52.138;5.446;2022-11-20T09:30:25;101373.41;;;-2.04;94.43
71768;BME280;59604;52.138;5.446;2022-11-20T09:32:52;101367.78;;;-1.96;94.14
71768;BME280;59604;52.138;5.446;2022-11-20T09:35:19;101365.47;;;-1.86;94.42
71768;BME280;59604;52.138;5.446;2022-11-20T09:37:45;101359.81;;;-1.79;94.02
71768;BME280;59604;52.138;5.446;2022-11-20T09:40:22;101365.44;;;-1.72;94.09
71768;BME280;59604;52.138;5.446;2022-11-20T09:48:53;101349.75;;;-1.42;93.70
71768;BME280;59604;52.138;5.446;2022-11-20T09:51:25;101347.69;;;-1.37;93.94
71768;BME280;59604;52.138;5.446;2022-11-20T09:56:50;101348.47;;;-1.22;93.84
71768;BME280;59604;52.138;5.446;2022-11-20T09:59:40;101354.00;;;-1.14;93.86
71768;BME280;59604;52.138;5.446;2022-11-20T10:02:23;101344.06;;;-1.07;93.77
71768;BME280;59604;52.138;5.446;2022-11-20T10:07:27;101336.44;;;-0.96;93.42
71768;BME280;59604;52.138;5.446;2022-11-20T10:09:58;101334.41;;;-0.91;93.56
71768;BME280;59604;52.138;5.446;2022-11-20T10:12:56;101331.31;;;-0.83;93.88
71768;BME280;59604;52.138;5.446;2022-11-20T10:18:21;101320.13;;;-0.71;93.80
71768;BME280;59604;52.138;5.446;2022-11-20T10:26:12;101305.00;;;-0.52;93.24
71768;BME280;59604;52.138;5.446;2022-11-20T10:29:18;101301.69;;;-0.41;93.07
71768;BME280;59604;52.138;5.446;2022-11-20T10:31:51;101302.09;;;-0.34;93.12
71768;BME280;59604;52.138;5.446;2022-11-20T10:34:22;101297.47;;;-0.29;92.86
71768;BME280;59604;52.138;5.446;2022-11-20T10:37:05;101293.91;;;-0.28;92.83
71768;BME280;59604;52.138;5.446;2022-11-20T10:39:41;101283.25;;;-0.23;92.89
71768;BME280;59604;52.138;5.446;2022-11-20T10:42:17;101280.66;;;-0.23;92.77
71768;BME280;59604;52.138;5.446;2022-11-20T10:44:51;101273.72;;;-0.23;93.44
71768;BME280;59604;52.138;5.446;2022-11-20T10:47:32;101280.94;;;-0.15;93.58
71768;BME280;59604;52.138;5.446;2022-11-20T10:50:03;101272.03;;;-0.11;93.42
71768;BME280;59604;52.138;5.446;2022-11-20T10:52:56;101273.25;;;-0.04;93.59
71768;BME280;59604;52.138;5.446;2022-11-20T10:55:33;101247.88;;;0.01;93.32
71768;BME280;59604;52.138;5.446;2022-11-20T11:01:11;101244.59;;;0.10;93.83
71768;BME280;59604;52.138;5.446;2022-11-20T11:03:39;101238.38;;;0.13;93.70
71768;BME280;59604;52.138;5.446;2022-11-20T11:06:14;101237.09;;;0.18;94.14
71768;BME280;59604;52.138;5.446;2022-11-20T11:08:44;101242.47;;;0.28;93.84
71768;BME280;59604;52.138;5.446;2022-11-20T11:11:33;101233.66;;;0.31;94.03
71768;BME280;59604;52.138;5.446;2022-11-20T11:14:10;101225.31;;;0.38;94.09
71768;BME280;59604;52.138;5.446;2022-11-20T11:16:50;101224.63;;;0.47;94.05
71768;BME280;59604;52.138;5.446;2022-11-20T11:19:17;101215.81;;;0.50;93.47
71768;BME280;59604;52.138;5.446;2022-11-20T11:21:47;101211.22;;;0.54;93.88
71768;BME280;59604;52.138;5.446;2022-11-20T11:24:22;101202.50;;;0.55;93.71
71768;BME280;59604;52.138;5.446;2022-11-20T11:27:14;101200.72;;;0.55;94.44
71768;BME280;59604;52.138;5.446;2022-11-20T11:29:45;101187.66;;;0.57;94.73
71768;BME280;59604;52.138;5.446;2022-11-20T11:34:39;101176.84;;;0.63;95.26
71768;BME280;59604;52.138;5.446;2022-11-20T11:37:33;101178.03;;;0.70;95.16
71768;BME280;59604;52.138;5.446;2022-11-20T11:40:03;101171.44;;;0.77;95.72
71768;BME280;59604;52.138;5.446;2022-11-20T11:42:57;101159.66;;;0.84;95.89
71768;BME280;59604;52.138;5.446;2022-11-20T11:45:25;101157.78;;;0.86;95.62
71768;BME280;59604;52.138;5.446;2022-11-20T11:47:54;101155.19;;;0.86;96.24
71768;BME280;59604;52.138;5.446;2022-11-20T11:50:28;101148.25;;;0.87;96.19
71768;BME280;59604;52.138;5.446;2022-11-20T11:53:16;101155.88;;;0.88;96.35
71768;BME280;59604;52.138;5.446;2022-11-20T11:58:40;101148.38;;;0.96;96.98
71768;BME280;59604;52.138;5.446;2022-11-20T12:01:41;101145.53;;;1.00;97.13
71768;BME280;59604;52.138;5.446;2022-11-20T12:07:06;101139.88;;;1.06;97.57
71768;BME280;59604;52.138;5.446;2022-11-20T12:09:56;101125.03;;;1.08;97.60
71768;BME280;59604;52.138;5.446;2022-11-20T12:12:44;101115.00;;;1.14;97.58
71768;BME280;59604;52.138;5.446;2022-11-20T12:15:15;101105.78;;;1.22;98.10
71768;BME280;59604;52.138;5.446;2022-11-20T12:17:43;101095.63;;;1.30;98.24
71768;BME280;59604;52.138;5.446;2022-11-20T12:20:13;101114.13;;;1.36;98.56
71768;BME280;59604;52.138;5.446;2022-11-20T12:22:51;101104.31;;;1.40;98.69
71768;BME280;59604;52.138;5.446;2022-11-20T12:25:31;101099.69;;;1.43;99.09
71768;BME280;59604;52.138;5.446;2022-11-20T12:34:10;101102.03;;;1.58;99.11
71768;BME280;59604;52.138;5.446;2022-11-20T12:36:51;101093.31;;;1.59;98.62
71768;BME280;59604;52.138;5.446;2022-11-20T12:39:39;101090.81;;;1.57;98.49
71768;BME280;59604;52.138;5.446;2022-11-20T12:42:35;101083.84;;;1.58;99.24
71768;BME280;59604;52.138;5.446;2022-11-20T12:59:28;101024.66;;;1.52;100.00
71768;BME280;59604;52.138;5.446;2022-11-20T13:07:56;101001.25;;;1.63;100.00
71768;BME280;59604;52.138;5.446;2022-11-20T13:10:34;101001.09;;;1.64;100.00
71768;BME280;59604;52.138;5.446;2022-11-20T13:15:58;101006.47;;;1.73;100.00
71768;BME280;59604;52.138;5.446;2022-11-20T13:18:28;100996.38;;;1.69;100.00
71768;BME280;59604;52.138;5.446;2022-11-20T13:21:00;100981.88;;;1.67;100.00
71768;BME280;59604;52.138;5.446;2022-11-20T13:23:27;100976.44;;;1.70;100.00
71768;BME280;59604;52.138;5.446;2022-11-20T13:26:16;100977.00;;;1.74;100.00
71768;BME280;59604;52.138;5.446;2022-11-20T13:28:45;100976.03;;;1.75;100.00
71768;BME280;59604;52.138;5.446;2022-11-20T13:31:35;100966.59;;;1.74;100.00
71768;BME280;59604;52.138;5.446;2022-11-20T13:34:04;100971.66;;;1.75;100.00
71768;BME280;59604;52.138;5.446;2022-11-20T13:36:32;100964.69;;;1.76;100.00
71768;BME280;59604;52.138;5.446;2022-11-20T13:39:01;100968.25;;;1.75;100.00
71768;BME280;59604;52.138;5.446;2022-11-20T13:44:13;100972.47;;;1.76;100.00
71768;BME280;59604;52.138;5.446;2022-11-20T13:46:45;100966.47;;;1.75;100.00
71768;BME280;59604;52.138;5.446;2022-11-20T13:49:34;100953.34;;;1.77;100.00
71768;BME280;59604;52.138;5.446;2022-11-20T13:55:12;100935.31;;;1.75;100.00
71768;BME280;59604;52.138;5.446;2022-11-20T14:00:20;100929.97;;;1.77;100.00
71768;BME280;59604;52.138;5.446;2022-11-20T14:03:12;100936.03;;;1.77;100.00
71768;BME280;59604;52.138;5.446;2022-11-20T14:05:53;100939.44;;;1.78;100.00
71768;BME280;59604;52.138;5.446;2022-11-20T14:08:27;100937.91;;;1.75;100.00
71768;BME280;59604;52.138;5.446;2022-11-20T14:11:27;100938.03;;;1.74;100.00
71768;BME280;59604;52.138;5.446;2022-11-20T14:16:22;100932.16;;;1.72;100.00
71768;BME280;59604;52.138;5.446;2022-11-20T14:18:50;100912.19;;;1.72;100.00
71768;BME280;59604;52.138;5.446;2022-11-20T14:21:28;100901.94;;;1.71;100.00
71768;BME280;59604;52.138;5.446;2022-11-20T14:24:06;100893.19;;;1.72;100.00